Time;durP1;ratioP1;P1;durP2;ratioP2;P2;SDS_P1;SDS_P2;PMS_P1;PMS_P2;Temp;Humidity;BMP_temperature;BMP_pressure;BME280_temperature;BME280_humidity;BME280_pressure;Samples;Min_cycle;Max_cycle;Signal;HPM_P1;HPM_P2
2023/03/01 00:01:40;;;;;;;11.18;6.50;;;;;;;-1.58;64.84;103115.13;5063664;28;20041;-75
2023/03/01 00:04:05;;;;;;;18.05;8.07;;;;;;;-1.60;64.41;103111.53;5032779;28;20020;-75
2023/03/01 00:06:31;;;;;;;16.95;8.48;;;;;;;-1.64;64.46;103105.22;5053029;28;20475;-75
2023/03/01 00:08:57;;;;;;;12.45;8.25;;;;;;;-1.66;64.76;103118.91;5060004;28;20048;-75
2023/03/01 00:11:25;;;;;;;12.43;7.38;;;;;;;-1.70;64.99;103110.03;5039036;28;20037;-75
2023/03/01 00:13:53;;;;;;;13.52;7.88;;;;;;;-1.70;65.17;103115.22;5055037;28;20395;-75
2023/03/01 00:16:41;;;;;;;13.10;7.65;;;;;;;-1.71;65.55;103110.81;5059881;28;20037;-75
2023/03/01 00:19:11;;;;;;;11.85;6.25;;;;;;;-1.72;65.09;103106.44;5052332;28;20040;-75
2023/03/01 00:21:36;;;;;;;10.25;6.63;;;;;;;-1.69;65.42;103103.13;5060487;28;20060;-75
2023/03/01 00:24:02;;;;;;;12.52;6.93;;;;;;;-1.73;65.70;103110.72;5031125;28;20036;-75
2023/03/01 00:26:28;;;;;;;9.27;6.35;;;;;;;-1.70;66.01;103110.03;5030853;28;20045;-75
2023/03/01 00:28:55;;;;;;;12.27;6.93;;;;;;;-1.70;65.51;103115.22;5056125;28;20376;-75
2023/03/01 00:31:23;;;;;;;11.65;5.97;;;;;;;-1.70;66.22;103109.13;5059680;28;20336;-75
2023/03/01 00:33:56;;;;;;;15.27;6.53;;;;;;;-1.70;66.30;103116.94;5040518;28;20439;-75
2023/03/01 00:36:24;;;;;;;9.82;6.05;;;;;;;-1.70;65.84;103115.22;5028188;28;20020;-74
2023/03/01 00:38:49;;;;;;;9.80;6.30;;;;;;;-1.73;66.19;103117.63;5053494;28;20066;-74
2023/03/01 00:41:17;;;;;;;9.90;6.32;;;;;;;-1.71;65.90;103110.81;5033688;28;20266;-74
2023/03/01 00:43:43;;;;;;;11.45;6.90;;;;;;;-1.75;65.69;103108.84;5035445;28;20073;-74
2023/03/01 00:46:14;;;;;;;11.02;6.70;;;;;;;-1.73;66.05;103115.94;5059612;28;20067;-74
2023/03/01 00:48:43;;;;;;;9.02;5.93;;;;;;;-1.73;65.85;103107.25;5039188;28;20064;-74
2023/03/01 00:51:10;;;;;;;11.38;7.15;;;;;;;-1.76;65.82;103100.13;5037227;28;20028;-74
2023/03/01 00:53:36;;;;;;;9.18;5.72;;;;;;;-1.82;66.37;103088.47;5014525;28;20060;-75
2023/03/01 00:56:04;;;;;;;11.38;6.07;;;;;;;-1.78;65.90;103095.63;5032486;28;20044;-74
2023/03/01 00:58:30;;;;;;;8.80;5.40;;;;;;;-1.81;66.54;103096.31;5035914;28;20115;-75
2023/03/01 01:00:55;;;;;;;7.90;5.28;;;;;;;-1.80;66.48;103097.25;5043295;28;20379;-74
2023/03/01 01:03:23;;;;;;;9.45;5.07;;;;;;;-1.83;66.70;103087.56;5055749;28;20037;-75
2023/03/01 01:05:48;;;;;;;8.05;4.80;;;;;;;-1.84;66.11;103095.25;5014598;28;20028;-75
2023/03/01 01:08:14;;;;;;;7.57;4.80;;;;;;;-1.85;66.79;103086.56;5034404;28;20480;-75
2023/03/01 01:10:39;;;;;;;9.93;5.20;;;;;;;-1.87;66.66;103089.84;5037336;28;20067;-75
2023/03/01 01:13:06;;;;;;;8.13;5.20;;;;;;;-1.90;66.87;103085.38;5041002;28;20026;-75
2023/03/01 01:15:34;;;;;;;7.10;4.57;;;;;;;-1.96;66.82;103083.25;5049943;28;20090;-75
2023/03/01 01:18:01;;;;;;;7.25;4.80;;;;;;;-1.93;66.89;103084.25;5050873;28;20016;-76
2023/03/01 01:20:26;;;;;;;10.20;4.88;;;;;;;-1.92;67.14;103080.88;5054343;28;20029;-76
2023/03/01 01:22:52;;;;;;;8.63;4.72;;;;;;;-1.96;66.29;103075.44;5057468;28;20036;-76
2023/03/01 01:25:18;;;;;;;9.18;4.68;;;;;;;-2.04;66.16;103065.38;5012808;28;20040;-76
2023/03/01 01:27:44;;;;;;;10.57;4.90;;;;;;;-2.07;66.57;103065.19;5058058;28;20021;-76
2023/03/01 01:30:11;;;;;;;9.15;4.95;;;;;;;-2.08;66.78;103061.66;5054749;28;20121;-76
2023/03/01 01:32:36;;;;;;;7.30;5.10;;;;;;;-2.13;66.69;103057.88;5040749;28;20028;-75
2023/03/01 01:35:02;;;;;;;7.43;4.70;;;;;;;-2.17;66.54;103055.91;5052132;28;20037;-76
2023/03/01 01:37:31;;;;;;;8.65;4.43;;;;;;;-2.21;67.28;103048.69;5034605;28;20028;-76
2023/03/01 01:40:02;;;;;;;8.23;4.75;;;;;;;-2.23;67.99;103048.59;5026259;28;20033;-76
2023/03/01 01:42:28;;;;;;;9.20;4.93;;;;;;;-2.27;67.26;103035.34;5049337;28;20120;-76
2023/03/01 01:45:32;;;;;;;12.05;5.72;;;;;;;-2.27;67.00;103035.34;5017419;28;20433;-76
2023/03/01 01:48:02;;;;;;;7.18;4.70;;;;;;;-2.30;67.37;103040.31;5044727;28;20037;-75
2023/03/01 01:50:37;;;;;;;6.15;4.55;;;;;;;-2.32;67.49;103035.03;5023309;28;20500;-76
2023/03/01 01:53:10;;;;;;;7.47;4.57;;;;;;;-2.35;67.96;103037.41;5001563;28;1525853;-76
2023/03/01 01:55:39;;;;;;;8.98;4.97;;;;;;;-2.35;68.58;103034.81;5047549;28;20062;-76
2023/03/01 01:58:08;;;;;;;7.22;4.85;;;;;;;-2.34;68.40;103039.22;5053220;28;20055;-76
2023/03/01 02:00:34;;;;;;;9.82;5.13;;;;;;;-2.33;68.64;103037.50;5035480;28;20111;-76
2023/03/01 02:03:03;;;;;;;7.00;4.72;;;;;;;-2.37;68.26;103031.22;5028309;28;20501;-76
2023/03/01 02:05:39;;;;;;;8.40;5.15;;;;;;;-2.38;68.42;103027.72;5033207;28;20032;-76
2023/03/01 02:08:06;;;;;;;6.63;4.55;;;;;;;-2.41;69.02;103026.63;5039863;28;20035;-76
2023/03/01 02:10:34;;;;;;;6.35;4.70;;;;;;;-2.42;69.02;103017.97;5056677;28;20377;-76
2023/03/01 02:13:00;;;;;;;8.57;5.30;;;;;;;-2.40;69.16;103023.22;5018455;28;20468;-76
2023/03/01 02:15:26;;;;;;;8.75;5.13;;;;;;;-2.41;69.72;103026.63;5054249;28;20028;-76
2023/03/01 02:17:54;;;;;;;8.63;4.82;;;;;;;-2.44;68.99;103009.16;5058258;28;20028;-76
2023/03/01 02:20:25;;;;;;;7.57;5.13;;;;;;;-2.44;69.60;103011.75;5043855;28;20123;-76
2023/03/01 02:22:53;;;;;;;10.20;5.93;;;;;;;-2.49;69.42;103014.84;5017565;28;20040;-76
2023/03/01 02:25:52;;;;;;;7.57;4.75;;;;;;;-2.45;69.10;103014.25;5031094;28;20037;-76
2023/03/01 02:28:29;;;;;;;6.65;4.40;;;;;;;-2.47;69.85;103021.06;5060268;28;20067;-76
2023/03/01 02:33:48;;;;;;;7.78;4.57;;;;;;;-2.52;70.07;103012.97;5037373;28;20445;-76
2023/03/01 02:36:18;;;;;;;11.45;5.15;;;;;;;-2.53;70.34;103007.66;5017185;28;20025;-76
2023/03/01 02:38:44;;;;;;;6.95;4.75;;;;;;;-2.56;70.59;103004.88;5041157;28;20106;-76
2023/03/01 02:41:14;;;;;;;9.80;4.55;;;;;;;-2.52;70.29;103012.03;5028963;28;20048;-76
2023/03/01 02:43:40;;;;;;;7.78;4.50;;;;;;;-2.56;70.53;103003.16;5033130;28;20039;-76
2023/03/01 02:46:13;;;;;;;7.05;4.40;;;;;;;-2.53;70.44;103021.53;5022210;28;20111;-76
2023/03/01 02:48:48;;;;;;;8.00;4.20;;;;;;;-2.51;70.45;103016.44;5035346;28;20082;-76
2023/03/01 02:51:23;;;;;;;6.97;4.30;;;;;;;-2.52;70.53;103014.63;5018694;28;20025;-76
2023/03/01 02:54:07;;;;;;;8.10;4.07;;;;;;;-2.50;70.20;103019.13;5023084;28;20562;-76
2023/03/01 02:56:33;;;;;;;9.40;5.05;;;;;;;-2.54;70.09;103014.56;5022399;28;20059;-76
2023/03/01 02:59:00;;;;;;;7.25;4.30;;;;;;;-2.54;70.20;103008.47;5022483;28;20045;-76
2023/03/01 03:01:37;;;;;;;7.57;4.95;;;;;;;-2.51;70.52;103021.63;5031332;28;20079;-76
2023/03/01 03:04:07;;;;;;;7.53;5.03;;;;;;;-2.51;70.77;103008.66;5033627;28;20472;-76
2023/03/01 03:06:33;;;;;;;8.85;5.38;;;;;;;-2.54;71.00;103003.28;5030641;28;20094;-76
2023/03/01 03:08:59;;;;;;;6.85;4.78;;;;;;;-2.52;70.55;103000.00;5027704;28;20032;-76
2023/03/01 03:11:24;;;;;;;7.15;5.03;;;;;;;-2.53;70.76;103008.53;5027008;28;20095;-76
2023/03/01 03:13:51;;;;;;;7.60;5.00;;;;;;;-2.66;71.29;102992.97;5021879;28;20032;-76
2023/03/01 03:16:18;;;;;;;7.05;4.65;;;;;;;-2.64;71.21;103005.25;5039516;28;20085;-76
2023/03/01 03:18:44;;;;;;;6.57;4.78;;;;;;;-2.65;71.45;103008.63;5026480;28;20416;-76
2023/03/01 03:21:13;;;;;;;9.00;5.25;;;;;;;-2.61;71.18;103017.53;5015592;28;20063;-76
2023/03/01 03:23:39;;;;;;;7.03;4.68;;;;;;;-2.66;70.85;103012.03;5048020;28;20036;-76
2023/03/01 03:26:05;;;;;;;8.35;5.00;;;;;;;-2.65;70.65;103013.81;5034873;28;20472;-76
2023/03/01 03:28:32;;;;;;;8.13;5.38;;;;;;;-2.68;70.58;103011.03;5028438;28;20123;-76
2023/03/01 03:30:58;;;;;;;7.85;4.78;;;;;;;-2.75;70.76;103002.72;5030270;28;20045;-76
2023/03/01 03:33:24;;;;;;;7.78;5.18;;;;;;;-2.72;70.85;103016.81;5053977;28;20048;-76
2023/03/01 03:35:50;;;;;;;6.72;4.32;;;;;;;-2.73;70.75;103009.81;5029376;28;20396;-77
2023/03/01 03:38:18;;;;;;;7.00;4.93;;;;;;;-2.77;71.69;103012.09;5046137;28;20017;-77
2023/03/01 03:40:49;;;;;;;10.02;4.97;;;;;;;-2.84;71.86;103001.31;5010790;28;20029;-77
2023/03/01 03:43:20;;;;;;;8.50;4.88;;;;;;;-2.83;71.95;103010.00;5052826;28;20025;-76
2023/03/01 03:45:47;;;;;;;13.68;5.95;;;;;;;-2.88;71.34;103009.69;5033881;28;20384;-77
2023/03/01 03:48:16;;;;;;;6.78;4.72;;;;;;;-2.89;72.13;103005.31;5029454;28;20115;-77
2023/03/01 03:50:48;;;;;;;9.45;5.53;;;;;;;-2.95;72.64;102994.50;5024875;28;20397;-76
2023/03/01 03:53:13;;;;;;;8.27;5.57;;;;;;;-2.90;72.47;103007.78;5049037;28;20103;-77
2023/03/01 03:55:39;;;;;;;8.55;5.13;;;;;;;-2.92;72.76;102999.00;5037639;28;20037;-77
2023/03/01 03:58:07;;;;;;;8.02;5.22;;;;;;;-2.99;72.76;102989.94;5059607;28;20045;-77
2023/03/01 04:00:35;;;;;;;9.48;4.82;;;;;;;-2.95;73.07;102993.63;5051059;28;20025;-77
2023/03/01 04:03:00;;;;;;;8.27;4.95;;;;;;;-2.98;73.02;102994.31;5053158;28;20032;-77
2023/03/01 04:05:26;;;;;;;8.30;4.82;;;;;;;-2.98;72.55;102993.41;5040605;28;20025;-77
2023/03/01 04:08:06;;;;;;;10.43;5.70;;;;;;;-3.02;73.16;102987.09;5016669;28;20044;-77
2023/03/01 04:10:44;;;;;;;10.38;5.25;;;;;;;-3.03;72.78;102993.09;5038888;28;20045;-77
2023/03/01 04:13:16;;;;;;;7.72;5.15;;;;;;;-3.05;72.68;102984.31;5032961;28;20520;-77
2023/03/01 04:15:45;;;;;;;10.27;5.57;;;;;;;-3.08;72.97;102981.53;5050417;28;20032;-76
2023/03/01 04:18:13;;;;;;;10.60;5.38;;;;;;;-3.11;73.81;102978.72;5033313;28;20017;-77
2023/03/01 04:20:38;;;;;;;9.60;5.15;;;;;;;-3.14;72.85;102973.31;5054823;28;20166;-77
2023/03/01 04:23:10;;;;;;;7.88;4.95;;;;;;;-3.13;73.01;102978.59;5040184;28;20119;-77
2023/03/01 04:25:53;;;;;;;8.05;4.90;;;;;;;-3.17;73.50;102966.22;5065014;28;20048;-77
2023/03/01 04:28:27;;;;;;;8.35;4.95;;;;;;;-3.16;73.33;102967.16;5054615;28;20151;-77
2023/03/01 04:30:55;;;;;;;8.57;5.53;;;;;;;-3.15;73.83;102974.13;5054658;28;20033;-77
2023/03/01 04:33:20;;;;;;;10.90;5.95;;;;;;;-3.18;74.22;102973.91;5050486;28;20032;-77
2023/03/01 04:35:49;;;;;;;7.45;5.03;;;;;;;-3.16;73.96;102974.94;5036524;28;20041;-77
2023/03/01 04:38:15;;;;;;;10.95;5.78;;;;;;;-3.18;73.74;102969.63;5054317;28;20033;-77
2023/03/01 04:40:42;;;;;;;9.10;4.85;;;;;;;-3.19;73.69;102970.44;5036821;28;20047;-77
2023/03/01 04:43:10;;;;;;;6.45;4.55;;;;;;;-3.25;73.76;102951.84;5054333;28;20044;-77
2023/03/01 04:45:36;;;;;;;9.68;5.10;;;;;;;-3.25;74.54;102959.63;5021736;28;20035;-77
2023/03/01 04:48:03;;;;;;;9.93;5.65;;;;;;;-3.20;73.94;102963.44;5044076;28;20041;-77
2023/03/01 04:50:29;;;;;;;10.88;5.53;;;;;;;-3.21;74.49;102953.88;5019758;28;20112;-77
2023/03/01 04:52:58;;;;;;;7.70;5.22;;;;;;;-3.23;74.43;102951.97;5054122;28;20136;-77
2023/03/01 04:55:26;;;;;;;7.55;4.97;;;;;;;-3.23;74.44;102958.03;5054026;28;20040;-77
2023/03/01 04:57:51;;;;;;;12.45;4.90;;;;;;;-3.18;74.93;102955.78;5062740;28;20111;-77
2023/03/01 05:00:20;;;;;;;6.85;4.80;;;;;;;-3.20;74.13;102959.94;5073555;28;20158;-77
2023/03/01 05:03:03;;;;;;;9.13;4.97;;;;;;;-3.23;73.75;102950.28;5029411;28;20036;-77
2023/03/01 05:05:33;;;;;;;8.50;5.57;;;;;;;-3.28;74.66;102944.78;5025243;28;20033;-77
2023/03/01 05:08:01;;;;;;;11.93;5.18;;;;;;;-3.26;74.92;102942.31;5073897;28;20035;-77
2023/03/01 05:10:29;;;;;;;9.63;5.35;;;;;;;-3.27;74.62;102943.06;5046619;28;20048;-77
2023/03/01 05:12:57;;;;;;;10.32;5.32;;;;;;;-3.25;74.07;102949.28;5022053;28;20545;-77
2023/03/01 05:15:25;;;;;;;8.32;5.40;;;;;;;-3.28;74.45;102941.28;5018547;28;20053;-77
2023/03/01 05:17:52;;;;;;;10.73;6.30;;;;;;;-3.30;75.01;102941.19;5039162;28;20429;-77
2023/03/01 05:20:17;;;;;;;8.55;5.03;;;;;;;-3.30;74.53;102937.69;5035789;28;20428;-77
2023/03/01 05:22:43;;;;;;;10.20;5.68;;;;;;;-3.36;74.83;102933.00;5038346;28;20115;-77
2023/03/01 05:25:09;;;;;;;7.97;5.35;;;;;;;-3.33;74.88;102937.50;5046546;28;20040;-77
2023/03/01 05:27:35;;;;;;;10.60;5.43;;;;;;;-3.35;74.99;102931.31;5049279;28;20048;-77
2023/03/01 05:30:13;;;;;;;10.70;6.03;;;;;;;-3.36;74.39;102920.03;5059292;28;20024;-77
2023/03/01 05:32:55;;;;;;;8.95;5.25;;;;;;;-3.38;74.42;102918.16;5040811;28;20064;-77
2023/03/01 05:35:21;;;;;;;8.25;5.18;;;;;;;-3.38;74.27;102916.44;5035027;28;20487;-77
2023/03/01 05:37:49;;;;;;;7.45;5.25;;;;;;;-3.41;74.29;102915.31;5067336;28;20509;-77
2023/03/01 05:40:20;;;;;;;7.85;5.30;;;;;;;-3.45;74.42;102909.06;5018854;28;20082;-77
2023/03/01 05:42:48;;;;;;;7.20;5.30;;;;;;;-3.43;74.77;102909.16;5035275;28;20060;-77
2023/03/01 05:45:15;;;;;;;7.05;5.00;;;;;;;-3.47;74.62;102906.34;5039093;28;20020;-77
2023/03/01 05:47:45;;;;;;;7.75;4.85;;;;;;;-3.51;74.29;102904.34;5035110;28;20356;-77
2023/03/01 05:50:18;;;;;;;7.80;4.55;;;;;;;-3.51;74.46;102900.84;5018342;28;20029;-77
2023/03/01 05:52:56;;;;;;;8.15;5.30;;;;;;;-3.57;74.15;102903.03;5035853;28;20514;-77
2023/03/01 05:55:22;;;;;;;7.18;4.72;;;;;;;-3.68;73.91;102890.25;5054051;28;20498;-77
2023/03/01 05:57:48;;;;;;;8.38;5.70;;;;;;;-3.64;74.43;102903.41;5054853;28;20080;-77
2023/03/01 06:00:17;;;;;;;10.13;5.63;;;;;;;-3.71;74.29;102902.06;5072711;28;20038;-77
2023/03/01 06:02:42;;;;;;;10.75;5.82;;;;;;;-3.74;75.11;102896.69;5048749;28;20040;-77
2023/03/01 06:05:10;;;;;;;9.88;5.28;;;;;;;-3.74;74.91;102901.84;5001811;28;20029;-77
2023/03/01 06:07:35;;;;;;;8.32;5.30;;;;;;;-3.73;75.43;102908.84;5052421;28;20021;-77
2023/03/01 06:10:02;;;;;;;8.73;5.18;;;;;;;-3.70;76.32;102916.81;5034311;28;20035;-77
2023/03/01 06:12:31;;;;;;;12.57;5.65;;;;;;;-3.70;76.16;102909.94;5034127;28;20017;-77
2023/03/01 06:14:58;;;;;;;11.38;5.80;;;;;;;-3.68;75.80;102908.38;5044286;28;20047;-77
2023/03/01 06:17:24;;;;;;;9.27;6.00;;;;;;;-3.69;75.90;102916.03;5037722;28;20029;-77
2023/03/01 06:19:49;;;;;;;9.50;5.97;;;;;;;-3.70;76.20;102901.28;5058695;28;20043;-77
2023/03/01 06:22:15;;;;;;;10.07;5.95;;;;;;;-3.69;76.55;102896.19;5025814;28;20390;-77
2023/03/01 06:24:40;;;;;;;7.45;5.03;;;;;;;-3.67;76.44;102902.38;5007840;28;20021;-77
2023/03/01 06:27:06;;;;;;;12.98;5.63;;;;;;;-3.69;76.70;102900.47;5043968;28;20103;-76
2023/03/01 06:29:31;;;;;;;8.23;5.35;;;;;;;-3.65;76.55;102902.50;5024453;28;20059;-77
2023/03/01 06:31:57;;;;;;;8.23;5.45;;;;;;;-3.67;76.95;102897.22;5044893;28;20474;-77
2023/03/01 06:34:22;;;;;;;9.98;5.75;;;;;;;-3.64;76.69;102906.88;5060817;28;20103;-77
2023/03/01 06:36:48;;;;;;;9.35;5.30;;;;;;;-3.64;76.82;102903.41;5047085;28;20446;-77
2023/03/01 06:39:13;;;;;;;11.20;5.85;;;;;;;-3.61;77.37;102911.38;5056294;28;20052;-77
2023/03/01 06:41:39;;;;;;;8.48;5.45;;;;;;;-3.59;77.47;102902.91;5037586;28;21270;-77
2023/03/01 06:44:04;;;;;;;12.38;5.53;;;;;;;-3.56;77.76;102910.91;5061833;28;20056;-77
2023/03/01 06:46:30;;;;;;;8.30;4.93;;;;;;;-3.52;77.59;102912.00;5059302;28;20033;-77
2023/03/01 06:48:59;;;;;;;7.30;5.00;;;;;;;-3.48;77.50;102903.66;5052042;28;20025;-76
2023/03/01 06:51:25;;;;;;;10.48;5.70;;;;;;;-3.44;77.63;102910.84;5018080;28;20071;-77
2023/03/01 06:53:51;;;;;;;10.10;5.70;;;;;;;-3.38;77.98;102918.16;5033622;28;20053;-77
2023/03/01 06:56:16;;;;;;;15.15;8.85;;;;;;;-3.35;77.85;102914.06;5019561;28;20044;-77
2023/03/01 06:58:42;;;;;;;15.68;8.57;;;;;;;-3.31;78.00;102910.88;5030341;28;20116;-77
2023/03/01 07:01:08;;;;;;;16.30;9.38;;;;;;;-3.26;77.43;102917.28;5047281;28;20041;-77
2023/03/01 07:03:34;;;;;;;15.45;7.90;;;;;;;-3.22;77.71;102909.72;5034230;28;20029;-77
2023/03/01 07:05:59;;;;;;;9.25;6.35;;;;;;;-3.18;77.68;102914.31;5039291;28;20098;-76
2023/03/01 07:08:25;;;;;;;9.27;5.50;;;;;;;-3.14;77.78;102909.44;5053898;28;20365;-76
2023/03/01 07:10:58;;;;;;;8.02;5.53;;;;;;;-3.09;77.80;102905.47;5053329;28;20036;-76
2023/03/01 07:13:23;;;;;;;10.25;5.80;;;;;;;-3.01;77.97;102902.50;5037179;28;20071;-76
2023/03/01 07:15:49;;;;;;;17.50;8.50;;;;;;;-2.99;77.67;102900.88;5021099;28;20115;-76
2023/03/01 07:18:14;;;;;;;12.20;7.22;;;;;;;-2.94;77.25;102903.00;5042129;28;20448;-76
2023/03/01 07:20:40;;;;;;;18.75;10.98;;;;;;;-2.83;77.63;102908.88;5023780;28;20025;-76
2023/03/01 07:23:06;;;;;;;14.50;8.82;;;;;;;-2.82;77.07;102900.28;5057836;28;20040;-76
2023/03/01 07:25:32;;;;;;;9.93;6.60;;;;;;;-2.75;77.36;102897.28;5025263;28;20054;-76
2023/03/01 07:27:58;;;;;;;10.00;6.03;;;;;;;-2.66;76.82;102904.78;5035548;28;20047;-76
2023/03/01 07:30:27;;;;;;;11.20;5.90;;;;;;;-2.56;76.85;102909.78;5043987;28;20036;-76
2023/03/01 07:32:53;;;;;;;9.95;5.70;;;;;;;-2.53;77.03;102902.19;5051925;28;20040;-76
2023/03/01 07:35:18;;;;;;;14.10;8.68;;;;;;;-2.40;76.65;102907.38;5042562;28;20203;-76
2023/03/01 07:37:44;;;;;;;11.00;6.60;;;;;;;-2.33;76.55;102910.34;5071411;28;20119;-76
2023/03/01 07:40:10;;;;;;;13.88;7.35;;;;;;;-2.24;76.41;102914.44;5033973;28;20361;-76
2023/03/01 07:42:36;;;;;;;9.50;6.32;;;;;;;-2.18;76.12;102903.53;5033791;28;20083;-76
2023/03/01 07:45:03;;;;;;;10.80;5.50;;;;;;;-2.08;76.32;102912.81;5028070;28;20495;-76
2023/03/01 07:47:28;;;;;;;10.70;6.13;;;;;;;-2.00;76.48;102906.41;5055240;28;20123;-76
2023/03/01 07:49:54;;;;;;;7.38;5.53;;;;;;;-1.93;75.88;102910.25;5033564;28;20128;-76
2023/03/01 07:52:20;;;;;;;9.63;5.40;;;;;;;-1.81;75.97;102909.31;5034518;28;20044;-76
2023/03/01 07:54:45;;;;;;;10.98;6.03;;;;;;;-1.71;75.73;102915.97;5015714;28;20472;-76
2023/03/01 07:57:11;;;;;;;8.82;6.00;;;;;;;-1.64;75.16;102910.38;5018102;28;20404;-76
2023/03/01 07:59:36;;;;;;;12.23;5.93;;;;;;;-1.66;75.04;102896.38;5021991;28;20119;-77
2023/03/01 08:02:02;;;;;;;12.00;6.72;;;;;;;-1.50;74.77;102903.41;5038199;28;20059;-76
2023/03/01 08:04:27;;;;;;;9.45;5.75;;;;;;;-1.38;74.74;102905.88;5038436;28;20025;-77
2023/03/01 08:06:54;;;;;;;10.38;6.25;;;;;;;-1.28;74.18;102903.00;5022334;28;20103;-77
2023/03/01 08:09:20;;;;;;;11.05;6.28;;;;;;;-1.15;74.46;102910.72;5004773;28;20020;-76
2023/03/01 08:11:46;;;;;;;9.20;6.25;;;;;;;-1.06;73.97;102910.38;5055553;28;20185;-77
2023/03/01 08:14:12;;;;;;;13.48;6.43;;;;;;;-0.92;73.84;102914.66;5054804;28;20111;-77
2023/03/01 08:16:38;;;;;;;8.77;6.32;;;;;;;-0.83;73.62;102916.91;5029389;28;20139;-77
2023/03/01 08:19:08;;;;;;;9.23;5.70;;;;;;;-0.69;73.35;102917.72;5052404;28;20053;-77
2023/03/01 08:21:34;;;;;;;10.10;6.00;;;;;;;-0.59;72.66;102920.03;5051554;28;20044;-77
2023/03/01 08:24:01;;;;;;;8.75;6.15;;;;;;;-0.52;72.71;102914.38;5037426;28;20020;-77
2023/03/01 08:26:27;;;;;;;9.95;5.80;;;;;;;-0.37;73.19;102916.94;5037592;28;20518;-77
2023/03/01 08:28:53;;;;;;;11.95;6.63;;;;;;;-0.26;72.42;102910.59;5022739;28;20036;-77
2023/03/01 08:31:22;;;;;;;13.93;6.00;;;;;;;-0.14;72.24;102906.91;5035091;28;20488;-77
2023/03/01 08:33:54;;;;;;;11.40;6.20;;;;;;;-0.06;71.65;102901.28;5028926;28;20538;-76
2023/03/01 08:36:20;;;;;;;9.90;6.63;;;;;;;0.05;71.21;102907.09;5036932;28;20416;-77
2023/03/01 08:38:46;;;;;;;12.95;5.95;;;;;;;0.16;70.86;102903.34;5037214;28;20036;-77
2023/03/01 08:41:12;;;;;;;8.93;5.78;;;;;;;0.27;70.31;102897.81;5054606;28;20094;-77
2023/03/01 08:43:37;;;;;;;9.90;6.25;;;;;;;0.37;70.23;102897.47;5036596;28;20108;-78
2023/03/01 08:46:03;;;;;;;11.70;6.00;;;;;;;0.43;69.50;102893.50;5020189;28;20059;-77
2023/03/01 08:48:29;;;;;;;8.80;6.13;;;;;;;0.56;69.65;102896.75;5011169;28;20021;-77
2023/03/01 08:50:55;;;;;;;11.38;6.25;;;;;;;0.65;69.16;102889.41;5054520;28;20045;-77
2023/03/01 08:53:20;;;;;;;8.07;5.57;;;;;;;0.70;68.67;102872.28;5036123;28;20114;-77
2023/03/01 08:55:46;;;;;;;13.70;7.28;;;;;;;0.84;68.34;102881.72;5036221;28;20480;-77
2023/03/01 08:58:11;;;;;;;16.85;7.75;;;;;;;0.93;67.73;102875.16;5054070;28;20053;-76
2023/03/01 09:00:37;;;;;;;13.57;7.65;;;;;;;1.01;67.77;102876.41;5030266;28;20120;-76
2023/03/01 09:03:03;;;;;;;11.43;7.40;;;;;;;1.12;67.55;102871.75;5027456;28;20448;-76
2023/03/01 09:05:32;;;;;;;12.07;6.75;;;;;;;1.17;66.94;102863.31;5035158;28;20063;-76
2023/03/01 09:07:57;;;;;;;9.30;5.90;;;;;;;1.28;66.69;102867.34;5047078;28;20083;-76
2023/03/01 09:10:23;;;;;;;11.23;6.60;;;;;;;1.41;66.69;102870.53;5045886;28;20028;-75
2023/03/01 09:12:48;;;;;;;10.93;5.78;;;;;;;1.48;66.30;102868.34;5030631;28;20030;-75
2023/03/01 09:15:14;;;;;;;10.00;5.93;;;;;;;1.58;66.27;102856.56;5049924;28;20045;-75
2023/03/01 09:17:39;;;;;;;8.98;5.93;;;;;;;1.66;65.19;102862.19;5051090;28;20040;-75
2023/03/01 09:20:06;;;;;;;8.55;5.25;;;;;;;1.77;65.07;102852.22;5026377;28;20381;-75
2023/03/01 09:22:35;;;;;;;10.13;6.10;;;;;;;1.85;64.75;102849.13;5032959;28;20039;-75
2023/03/01 09:25:01;;;;;;;8.95;5.47;;;;;;;1.96;64.96;102854.00;5029482;28;20362;-75
2023/03/01 09:27:26;;;;;;;12.98;6.22;;;;;;;2.05;64.95;102851.75;5066530;28;20107;-75
2023/03/01 09:29:52;;;;;;;9.32;6.10;;;;;;;2.17;63.46;102848.81;5029065;28;20037;-75
2023/03/01 09:32:17;;;;;;;9.10;6.13;;;;;;;2.22;63.18;102840.34;5021443;28;20043;-75
2023/03/01 09:35:03;;;;;;;8.98;5.30;;;;;;;2.35;63.69;102840.09;5031775;28;20037;-75
2023/03/01 09:37:29;;;;;;;10.85;5.68;;;;;;;2.47;61.36;102831.84;5045891;28;20466;-75
2023/03/01 09:39:55;;;;;;;7.25;5.40;;;;;;;2.53;60.07;102823.41;5046234;28;20125;-75
2023/03/01 09:42:20;;;;;;;9.93;5.43;;;;;;;2.58;59.23;102825.38;5031644;28;20028;-75
2023/03/01 09:44:51;;;;;;;11.65;5.72;;;;;;;2.64;58.95;102826.47;5012572;28;20049;-75
2023/03/01 09:47:26;;;;;;;8.07;5.28;;;;;;;2.72;60.08;102825.06;5042712;28;20025;-75
2023/03/01 09:50:17;;;;;;;10.00;5.65;;;;;;;2.80;60.60;102824.56;5043243;28;20377;-75
2023/03/01 09:53:21;;;;;;;9.13;5.47;;;;;;;2.92;59.76;102823.31;5029228;28;20053;-75
2023/03/01 09:55:58;;;;;;;9.88;5.43;;;;;;;3.02;59.47;102820.22;4968380;28;20050;-75
2023/03/01 09:58:52;;;;;;;7.78;5.18;;;;;;;3.17;57.63;102818.22;5033738;28;20047;-76
2023/03/01 10:01:53;;;;;;;8.52;5.25;;;;;;;3.29;57.86;102824.75;5041640;28;20112;-75
2023/03/01 10:04:32;;;;;;;8.32;4.93;;;;;;;3.33;56.96;102818.81;5066726;28;20029;-75
2023/03/01 10:07:20;;;;;;;8.43;5.30;;;;;;;3.39;55.57;102811.22;5047981;28;20099;-75
2023/03/01 10:09:46;;;;;;;9.73;4.90;;;;;;;3.35;54.40;102793.59;5023966;28;20131;-75
2023/03/01 10:12:17;;;;;;;8.18;5.50;;;;;;;3.47;55.72;102799.31;5048782;28;20028;-75
2023/03/01 10:15:00;;;;;;;8.38;5.30;;;;;;;3.58;55.33;102797.97;5045981;28;20073;-75
2023/03/01 10:17:34;;;;;;;10.10;4.85;;;;;;;3.66;54.17;102791.31;5035116;28;20076;-76
2023/03/01 10:20:22;;;;;;;10.05;5.38;;;;;;;3.72;53.49;102784.53;5029264;28;20128;-76
2023/03/01 10:22:52;;;;;;;9.20;5.22;;;;;;;3.87;53.66;102785.97;5066477;28;20082;-75
2023/03/01 10:25:52;;;;;;;10.23;5.20;;;;;;;4.04;54.15;102780.47;5052197;28;20063;-75
2023/03/01 10:28:35;;;;;;;8.80;4.50;;;;;;;4.13;51.87;102786.06;4977628;28;20062;-75
2023/03/01 10:31:01;;;;;;;8.82;5.40;;;;;;;4.22;51.67;102780.22;5041172;28;20789;-75
2023/03/01 10:33:31;;;;;;;8.70;4.88;;;;;;;4.36;50.91;102772.84;5059709;28;20028;-75
2023/03/01 10:35:56;;;;;;;7.15;4.97;;;;;;;4.46;51.14;102767.97;5058466;28;20133;-75
2023/03/01 10:38:22;;;;;;;8.10;4.72;;;;;;;4.52;50.60;102752.44;5016958;28;20049;-75
2023/03/01 10:40:57;;;;;;;8.30;4.90;;;;;;;4.66;51.63;102758.13;5030641;28;20037;-76
2023/03/01 10:43:31;;;;;;;10.88;5.15;;;;;;;4.85;51.26;102762.28;5055532;28;20042;-75
2023/03/01 10:45:57;;;;;;;8.13;5.10;;;;;;;5.03;50.38;102761.06;5063721;28;20032;-76
2023/03/01 10:48:28;;;;;;;8.50;4.93;;;;;;;5.10;49.55;102761.31;5033942;28;20035;-75
2023/03/01 10:50:59;;;;;;;11.10;5.15;;;;;;;5.18;50.64;102751.94;5050980;28;20041;-75
2023/03/01 10:53:46;;;;;;;8.63;5.47;;;;;;;5.32;50.46;102748.84;5044666;28;20056;-75
2023/03/01 10:56:18;;;;;;;9.20;4.93;;;;;;;5.50;49.72;102749.38;5026218;28;20102;-75
2023/03/01 10:58:57;;;;;;;9.23;5.10;;;;;;;5.69;49.86;102753.47;5021676;28;20388;-75
2023/03/01 11:01:22;;;;;;;8.75;4.90;;;;;;;5.83;48.48;102753.84;5047341;28;20048;-75
2023/03/01 11:04:10;;;;;;;9.85;5.40;;;;;;;5.94;49.86;102741.94;5052433;28;20021;-75
2023/03/01 11:06:38;;;;;;;8.60;5.18;;;;;;;6.05;48.42;102750.09;5055935;28;20448;-75
2023/03/01 11:09:21;;;;;;;8.68;5.25;;;;;;;6.22;50.18;102742.66;5035650;28;20035;-75
2023/03/01 11:11:57;;;;;;;9.23;5.13;;;;;;;6.25;47.96;102743.63;5041422;28;20091;-75
2023/03/01 11:14:32;;;;;;;9.05;5.60;;;;;;;6.35;48.86;102739.50;5052384;28;20037;-75
2023/03/01 11:17:02;;;;;;;8.50;4.78;;;;;;;6.41;47.23;102741.41;5061423;28;20032;-75
2023/03/01 11:19:28;;;;;;;9.23;5.38;;;;;;;6.53;48.30;102751.34;5038335;28;20037;-75
2023/03/01 11:21:59;;;;;;;10.18;5.70;;;;;;;6.67;48.31;102748.19;5024332;28;20507;-75
2023/03/01 11:24:45;;;;;;;6.38;4.95;;;;;;;6.80;49.04;102733.63;5016279;28;20037;-75
2023/03/01 11:27:28;;;;;;;8.90;5.65;;;;;;;7.15;49.79;102740.56;5045663;28;20373;-75
2023/03/01 11:30:13;;;;;;;9.50;5.50;;;;;;;7.47;48.96;102741.28;5055326;28;20036;-75
2023/03/01 11:32:42;;;;;;;10.38;5.55;;;;;;;7.69;46.61;102734.69;5055372;28;20071;-75
2023/03/01 11:35:21;;;;;;;9.73;5.10;;;;;;;7.79;47.21;102728.75;5055200;28;20037;-75
2023/03/01 11:38:01;;;;;;;8.65;5.82;;;;;;;7.95;47.28;102724.66;5069776;28;20385;-75